San Luis Obispo, CA (93401)

7:02 AM PST on December 10, 2016 (GMT -0800)
Rockview | | Change Station

Elev 249 ft 35.26 °N, 120.65 °W | Updated 1 second ago

Rain
Rain
59.0 °F
Feels Like 59.0 °F
N
0.0
Wind Variable Wind from North
Gusts 0.0 mph

Today
High -- | Low -- °F
--% Chance of Precip.
Yesterday
High -- | Low -- °F
Precip. -- in
Pressure 30.18 in
Visibility 2.0 miles
Clouds Few 600 ft
Mostly Cloudy 1500 ft
Overcast 3000 ft
Dew Point 58 °F
Humidity 98%
Rainfall 0.04 in
Snow Depth Not available.
7:00 AM 4:50 PM
Waxing Gibbous, 84% visible
METAR KSBP 101456Z 10003KT 2SM BR FEW006 BKN015 OVC030 16/15 A3019 RMK AO2 SLP220 T01610150 50001
Pressure 30.18 in
Visibility 2.0 miles
Clouds Few 600 ft
Mostly Cloudy 1500 ft
Overcast 3000 ft
Dew Point 58 °F
Humidity 98%
Rainfall 0.04 in
Snow Depth Not available.
7:00 AM 4:50 PM
Waxing Gibbous, 84% visible
METAR KSBP 101456Z 10003KT 2SM BR FEW006 BKN015 OVC030 16/15 A3019 RMK AO2 SLP220 T01610150 50001

10-Day Weather Forecast

Almanac

Astronomy

Dec. 10, 2016 Rise Set
Actual Time
Civil Twilight
Nautical Twilight
Astronomical Twilight
Moon
Length of Visible Light
Length of Day
Tomorrow will be .
, % of the Moon is Illuminated

Today's Extremes

State Highs State Lows

Community

WunderPhotos

Upload Photos

1,956,549 photos uploaded!

WunderBlog® & News

Nearby

Air Quality

  Air Quality AQ Index Pollutant
Not available.

Snow Depth

Station Depth Elevation

Earthquake Activity

City Distance Mag. Time & Date
Minimum magnitude displayed is 2.5.

Coastal Water Temperatures

Place Temperature

Stations

Nearby Weather Stations

Station Location Temp. Windchill Dew Point Humidity Wind Precip. Elev Updated Type
                   

Watches & Warnings

There are currently no watches in effect.